Time,TemperatureF,DewpointF,PressureIn,WindDirection,WindDirectionDegrees,WindSpeedMPH,WindSpeedGustMPH,Humidity,HourlyPrecipIn,Conditions,Clouds,dailyrainin,SolarRadiationWatts/m^2,SoftwareType,DateUTC
2013-08-04 00:01:00,54.0,42.0,-100.00,ESE,109,5.0,7.0,64,0.00,,,0.00,0.000000,,2013-08-04 06:01:00,
2013-08-04 00:12:00,54.0,42.0,-100.00,ESE,109,5.0,7.0,64,0.00,,,0.00,0.000000,,2013-08-04 06:12:00,
2013-08-04 00:43:00,52.0,43.0,-100.00,ESE,102,6.0,8.0,71,0.00,,,0.00,0.000000,,2013-08-04 06:43:00,
2013-08-04 00:52:00,52.0,43.0,-100.00,ESE,102,6.0,8.0,71,0.00,,,0.00,0.000000,,2013-08-04 06:52:00,
2013-08-04 01:02:00,52.0,43.0,-100.00,ESE,102,6.0,8.0,71,0.00,,,0.00,0.000000,,2013-08-04 07:02:00,
2013-08-04 01:12:00,52.0,43.0,-100.00,ESE,102,6.0,8.0,71,0.00,,,0.00,0.000000,,2013-08-04 07:12:00,
2013-08-04 01:42:00,50.0,43.0,-100.00,ENE,78,2.0,7.0,76,0.00,,,0.00,0.000000,,2013-08-04 07:42:00,
2013-08-04 01:53:00,50.0,43.0,-100.00,ENE,78,2.0,7.0,76,0.00,,,0.00,0.000000,,2013-08-04 07:53:00,
2013-08-04 02:02:00,50.0,43.0,-100.00,ENE,78,2.0,7.0,76,0.00,,,0.00,0.000000,,2013-08-04 08:02:00,
2013-08-04 02:11:00,50.0,43.0,-100.00,ENE,78,2.0,7.0,76,0.00,,,0.00,0.000000,,2013-08-04 08:11:00,
2013-08-04 02:43:00,47.0,43.0,-100.00,ESE,107,5.0,7.0,85,0.00,,,0.00,0.000000,,2013-08-04 08:43:00,
2013-08-04 02:53:00,47.0,43.0,-100.00,ESE,107,5.0,7.0,85,0.00,,,0.00,0.000000,,2013-08-04 08:53:00,
2013-08-04 03:02:00,47.0,43.0,-100.00,ESE,107,5.0,7.0,85,0.00,,,0.00,0.000000,,2013-08-04 09:02:00,
2013-08-04 03:12:00,47.0,43.0,-100.00,ESE,107,5.0,7.0,85,0.00,,,0.00,0.000000,,2013-08-04 09:12:00,
2013-08-04 03:43:00,46.0,41.0,-100.00,SSE,163,2.0,6.0,83,0.00,,,0.00,0.000000,,2013-08-04 09:43:00,
2013-08-04 03:52:00,46.0,41.0,-100.00,SSE,163,2.0,6.0,83,0.00,,,0.00,0.000000,,2013-08-04 09:52:00,
2013-08-04 04:02:00,46.0,41.0,-100.00,SSE,163,2.0,6.0,83,0.00,,,0.00,0.000000,,2013-08-04 10:02:00,
2013-08-04 04:12:00,46.0,41.0,-100.00,SSE,163,2.0,6.0,83,0.00,,,0.00,0.000000,,2013-08-04 10:12:00,
2013-08-04 04:43:00,43.0,40.0,-100.00,ESE,115,2.0,5.0,90,0.00,,,0.00,0.000000,,2013-08-04 10:43:00,
2013-08-04 04:53:00,43.0,40.0,-100.00,ESE,115,2.0,5.0,90,0.00,,,0.00,0.000000,,2013-08-04 10:53:00,
2013-08-04 05:02:00,43.0,40.0,-100.00,ESE,115,2.0,5.0,90,0.00,,,0.00,0.000000,,2013-08-04 11:02:00,
2013-08-04 05:12:00,43.0,40.0,-100.00,ESE,115,2.0,5.0,90,0.00,,,0.00,0.000000,,2013-08-04 11:12:00,
2013-08-04 05:42:00,43.0,40.0,-100.00,NNE,14,1.0,4.0,90,0.00,,,0.00,0.000000,,2013-08-04 11:42:00,
2013-08-04 05:53:00,43.0,40.0,-100.00,NNE,14,1.0,4.0,90,0.00,,,0.00,0.000000,,2013-08-04 11:53:00,
2013-08-04 06:02:00,43.0,40.0,-100.00,NNE,14,1.0,4.0,90,0.00,,,0.00,0.000000,,2013-08-04 12:02:00,
2013-08-04 06:12:00,43.0,40.0,-100.00,NNE,14,1.0,4.0,90,0.00,,,0.00,0.000000,,2013-08-04 12:12:00,
2013-08-04 06:43:00,43.0,41.0,-100.00,ESE,123,3.0,6.0,91,0.00,,,0.00,0.000000,,2013-08-04 12:43:00,
2013-08-04 06:53:00,43.0,41.0,-100.00,ESE,123,3.0,6.0,91,0.00,,,0.00,0.000000,,2013-08-04 12:53:00,
2013-08-04 07:02:00,43.0,41.0,-100.00,ESE,123,3.0,6.0,91,0.00,,,0.00,0.000000,,2013-08-04 13:02:00,
2013-08-04 07:12:00,43.0,41.0,-100.00,ESE,123,3.0,6.0,91,0.00,,,0.00,0.000000,,2013-08-04 13:12:00,
2013-08-04 07:43:00,42.0,40.0,-100.00,West,267,1.0,4.0,92,0.00,,,0.00,13.000000,,2013-08-04 13:43:00,
2013-08-04 07:52:00,42.0,40.0,-100.00,West,267,1.0,4.0,92,0.00,,,0.00,13.000000,,2013-08-04 13:52:00,
2013-08-04 08:02:00,42.0,40.0,-100.00,West,267,1.0,4.0,92,0.00,,,0.00,13.000000,,2013-08-04 14:02:00,
2013-08-04 08:12:00,42.0,40.0,-100.00,West,267,1.0,4.0,92,0.00,,,0.00,13.000000,,2013-08-04 14:12:00,
2013-08-04 08:43:00,49.0,46.0,-100.00,East,91,2.0,4.0,88,0.00,,,0.00,181.000000,,2013-08-04 14:43:00,
2013-08-04 08:52:00,49.0,46.0,-100.00,East,91,2.0,4.0,88,0.00,,,0.00,181.000000,,2013-08-04 14:52:00,
2013-08-04 09:02:00,49.0,46.0,-100.00,East,91,2.0,4.0,88,0.00,,,0.00,181.000000,,2013-08-04 15:02:00,
2013-08-04 09:12:00,49.0,46.0,-100.00,East,91,2.0,4.0,88,0.00,,,0.00,181.000000,,2013-08-04 15:12:00,
2013-08-04 09:42:00,56.0,47.0,-100.00,West,259,2.0,4.0,72,0.00,,,0.00,432.000000,,2013-08-04 15:42:00,
2013-08-04 09:53:00,56.0,47.0,-100.00,West,259,2.0,4.0,72,0.00,,,0.00,432.000000,,2013-08-04 15:53:00,
2013-08-04 10:01:00,56.0,47.0,-100.00,West,259,2.0,4.0,72,0.00,,,0.00,432.000000,,2013-08-04 16:01:00,
2013-08-04 10:12:00,56.0,47.0,-100.00,West,259,2.0,4.0,72,0.00,,,0.00,432.000000,,2013-08-04 16:12:00,
2013-08-04 10:43:00,63.0,49.0,-100.00,West,276,2.0,5.0,60,0.00,,,0.00,638.000000,,2013-08-04 16:43:00,
2013-08-04 10:53:00,63.0,49.0,-100.00,West,276,2.0,5.0,60,0.00,,,0.00,638.000000,,2013-08-04 16:53:00,
2013-08-04 11:02:00,63.0,49.0,-100.00,West,276,2.0,5.0,60,0.00,,,0.00,638.000000,,2013-08-04 17:02:00,
2013-08-04 11:12:00,63.0,49.0,-100.00,West,276,2.0,5.0,60,0.00,,,0.00,638.000000,,2013-08-04 17:12:00,
2013-08-04 11:43:00,71.0,44.0,-100.00,North,349,4.0,6.0,38,0.00,,,0.00,814.000000,,2013-08-04 17:43:00,
2013-08-04 11:53:00,71.0,44.0,-100.00,North,349,4.0,6.0,38,0.00,,,0.00,814.000000,,2013-08-04 17:53:00,
2013-08-04 12:02:00,71.0,44.0,-100.00,North,349,4.0,6.0,38,0.00,,,0.00,814.000000,,2013-08-04 18:02:00,
2013-08-04 12:11:00,71.0,44.0,-100.00,North,349,4.0,6.0,38,0.00,,,0.00,814.000000,,2013-08-04 18:11:00,
2013-08-04 12:43:00,73.0,38.0,-100.00,West,264,4.0,12.0,28,0.00,,,0.00,946.000000,,2013-08-04 18:43:00,
2013-08-04 12:52:00,73.0,38.0,-100.00,West,264,4.0,12.0,28,0.00,,,0.00,946.000000,,2013-08-04 18:52:00,
2013-08-04 13:02:00,73.0,38.0,-100.00,West,264,4.0,12.0,28,0.00,,,0.00,946.000000,,2013-08-04 19:02:00,
2013-08-04 13:12:00,73.0,38.0,-100.00,West,264,4.0,12.0,28,0.00,,,0.00,946.000000,,2013-08-04 19:12:00,
2013-08-04 13:43:00,77.0,37.0,-100.00,NW,312,6.0,10.0,24,0.00,,,0.00,1030.000000,,2013-08-04 19:43:00,
2013-08-04 13:53:00,77.0,37.0,-100.00,NW,312,6.0,10.0,24,0.00,,,0.00,1030.000000,,2013-08-04 19:53:00,
2013-08-04 14:02:00,77.0,37.0,-100.00,NW,312,6.0,10.0,24,0.00,,,0.00,1030.000000,,2013-08-04 20:02:00,
2013-08-04 14:12:00,77.0,37.0,-100.00,NW,312,6.0,10.0,24,0.00,,,0.00,1030.000000,,2013-08-04 20:12:00,
2013-08-04 14:43:00,78.0,30.0,-100.00,WSW,240,7.0,17.0,17,0.00,,,0.00,1057.000000,,2013-08-04 20:43:00,
2013-08-04 14:53:00,78.0,30.0,-100.00,WSW,240,7.0,17.0,17,0.00,,,0.00,1057.000000,,2013-08-04 20:53:00,
2013-08-04 15:02:00,78.0,30.0,-100.00,WSW,240,7.0,17.0,17,0.00,,,0.00,1057.000000,,2013-08-04 21:02:00,
2013-08-04 15:12:00,78.0,30.0,-100.00,WSW,240,7.0,17.0,17,0.00,,,0.00,1057.000000,,2013-08-04 21:12:00,
2013-08-04 15:43:00,79.0,29.0,-100.00,West,280,7.0,15.0,16,0.00,,,0.00,1014.000000,,2013-08-04 21:43:00,
2013-08-04 15:53:00,79.0,29.0,-100.00,West,280,7.0,15.0,16,0.00,,,0.00,1014.000000,,2013-08-04 21:53:00,
2013-08-04 16:01:00,79.0,29.0,-100.00,West,280,7.0,15.0,16,0.00,,,0.00,1014.000000,,2013-08-04 22:01:00,
2013-08-04 16:11:00,79.0,29.0,-100.00,West,280,7.0,15.0,16,0.00,,,0.00,1014.000000,,2013-08-04 22:11:00,
2013-08-04 16:43:00,79.0,33.0,-100.00,West,276,7.0,15.0,19,0.00,,,0.00,657.000000,,2013-08-04 22:43:00,
2013-08-04 16:53:00,79.0,33.0,-100.00,West,276,7.0,15.0,19,0.00,,,0.00,657.000000,,2013-08-04 22:53:00,
2013-08-04 17:02:00,79.0,33.0,-100.00,West,276,7.0,15.0,19,0.00,,,0.00,657.000000,,2013-08-04 23:02:00,
2013-08-04 17:11:00,79.0,33.0,-100.00,West,276,7.0,15.0,19,0.00,,,0.00,657.000000,,2013-08-04 23:11:00,
2013-08-04 17:43:00,80.0,33.0,-100.00,West,279,7.0,16.0,18,0.00,,,0.00,762.000000,,2013-08-04 23:43:00,
2013-08-04 17:53:00,80.0,33.0,-100.00,West,279,7.0,16.0,18,0.00,,,0.00,762.000000,,2013-08-04 23:53:00,
2013-08-04 18:01:00,80.0,33.0,-100.00,West,279,7.0,16.0,18,0.00,,,0.00,762.000000,,2013-08-05 00:01:00,
2013-08-04 18:12:00,80.0,33.0,-100.00,West,279,7.0,16.0,18,0.00,,,0.00,762.000000,,2013-08-05 00:12:00,
2013-08-04 18:42:00,80.0,34.0,-100.00,WNW,297,7.0,15.0,19,0.00,,,0.00,572.000000,,2013-08-05 00:42:00,
2013-08-04 18:52:00,80.0,34.0,-100.00,WNW,297,7.0,15.0,19,0.00,,,0.00,572.000000,,2013-08-05 00:52:00,
2013-08-04 19:02:00,80.0,34.0,-100.00,WNW,297,7.0,15.0,19,0.00,,,0.00,572.000000,,2013-08-05 01:02:00,
2013-08-04 19:12:00,80.0,34.0,-100.00,WNW,297,7.0,15.0,19,0.00,,,0.00,572.000000,,2013-08-05 01:12:00,
2013-08-04 19:43:00,79.0,36.0,-100.00,WNW,287,5.0,12.0,21,0.00,,,0.00,365.000000,,2013-08-05 01:43:00,
2013-08-04 19:52:00,79.0,36.0,-100.00,WNW,287,5.0,12.0,21,0.00,,,0.00,365.000000,,2013-08-05 01:52:00,
2013-08-04 20:02:00,79.0,36.0,-100.00,WNW,287,5.0,12.0,21,0.00,,,0.00,365.000000,,2013-08-05 02:02:00,
2013-08-04 20:12:00,79.0,36.0,-100.00,WNW,287,5.0,12.0,21,0.00,,,0.00,365.000000,,2013-08-05 02:12:00,
2013-08-04 20:43:00,75.0,40.0,-100.00,North,350,2.0,8.0,28,0.00,,,0.00,168.000000,,2013-08-05 02:43:00,
2013-08-04 20:53:00,75.0,40.0,-100.00,North,350,2.0,8.0,28,0.00,,,0.00,168.000000,,2013-08-05 02:53:00,
2013-08-04 21:02:00,75.0,40.0,-100.00,North,350,2.0,8.0,28,0.00,,,0.00,168.000000,,2013-08-05 03:02:00,
2013-08-04 21:12:00,75.0,40.0,-100.00,North,350,2.0,8.0,28,0.00,,,0.00,168.000000,,2013-08-05 03:12:00,
2013-08-04 21:42:00,65.0,33.0,-100.00,NE,54,2.0,5.0,30,0.00,,,0.00,21.000000,,2013-08-05 03:42:00,
2013-08-04 21:53:00,65.0,33.0,-100.00,NE,54,2.0,5.0,30,0.00,,,0.00,21.000000,,2013-08-05 03:53:00,
2013-08-04 22:02:00,65.0,33.0,-100.00,NE,54,2.0,5.0,30,0.00,,,0.00,21.000000,,2013-08-05 04:02:00,
2013-08-04 22:11:00,65.0,33.0,-100.00,NE,54,2.0,5.0,30,0.00,,,0.00,21.000000,,2013-08-05 04:11:00,
2013-08-04 22:43:00,62.0,34.0,-100.00,East,96,6.0,9.0,35,0.00,,,0.00,0.000000,,2013-08-05 04:43:00,
2013-08-04 22:52:00,62.0,34.0,-100.00,East,96,6.0,9.0,35,0.00,,,0.00,0.000000,,2013-08-05 04:52:00,
2013-08-04 23:02:00,62.0,34.0,-100.00,East,96,6.0,9.0,35,0.00,,,0.00,0.000000,,2013-08-05 05:02:00,
2013-08-04 23:12:00,62.0,34.0,-100.00,East,96,6.0,9.0,35,0.00,,,0.00,0.000000,,2013-08-05 05:12:00,
2013-08-04 23:43:00,57.0,32.0,-100.00,NNE,22,2.0,9.0,38,0.00,,,0.00,0.000000,,2013-08-05 05:43:00,
2013-08-04 23:53:00,57.0,32.0,-100.00,NNE,22,2.0,9.0,38,0.00,,,0.00,0.000000,,2013-08-05 05:53:00,